Time;durP1;ratioP1;P1;durP2;ratioP2;P2;SDS_P1;SDS_P2;PMS_P1;PMS_P2;Temp;Humidity;BMP_temperature;BMP_pressure;BME280_temperature;BME280_humidity;BME280_pressure;Samples;Min_cycle;Max_cycle;Signal;HPM_P1;HPM_P2
2023/06/25 00:08:49;;;;;;;14.18;9.63;;;;;;;22.12;100.00;100754.59;21000498;28;20063;-78
2023/06/25 00:19:12;;;;;;;12.68;10.05;;;;;;;22.06;100.00;100746.69;21003045;28;20508;-79
2023/06/25 00:29:37;;;;;;;12.57;9.57;;;;;;;21.92;100.00;100741.75;20998522;28;20052;-78
2023/06/25 00:40:00;;;;;;;12.27;9.50;;;;;;;21.77;100.00;100739.53;20962588;28;20060;-78
2023/06/25 00:50:25;;;;;;;12.20;10.60;;;;;;;21.76;100.00;100732.38;20982314;28;20048;-79
2023/06/25 01:00:49;;;;;;;13.18;10.15;;;;;;;21.52;100.00;100727.75;20964824;28;20058;-78
2023/06/25 01:11:13;;;;;;;13.85;10.48;;;;;;;21.48;100.00;100721.59;21005566;28;20119;-78
2023/06/25 01:21:39;;;;;;;13.00;10.50;;;;;;;21.34;100.00;100718.41;20991366;28;20059;-78
2023/06/25 01:32:06;;;;;;;13.52;10.35;;;;;;;21.34;100.00;100703.19;20996155;28;20048;-77
2023/06/25 01:42:29;;;;;;;14.97;11.37;;;;;;;21.19;100.00;100692.03;20969206;28;20032;-78
2023/06/25 01:52:54;;;;;;;12.27;10.15;;;;;;;21.18;100.00;100690.28;20959716;28;20041;-78
2023/06/25 02:03:16;;;;;;;14.63;11.27;;;;;;;21.06;100.00;100681.63;20959358;28;20901;-79
2023/06/25 02:13:40;;;;;;;13.27;10.80;;;;;;;20.96;100.00;100677.44;20974163;28;20451;-78
2023/06/25 02:24:03;;;;;;;16.10;12.00;;;;;;;20.95;100.00;100666.72;20958987;28;20060;-77
2023/06/25 02:34:28;;;;;;;14.15;10.63;;;;;;;20.88;100.00;100647.22;20977195;28;20498;-78
2023/06/25 02:44:50;;;;;;;15.50;10.90;;;;;;;20.63;100.00;100648.84;20939294;28;20067;-78
2023/06/25 02:55:14;;;;;;;13.45;11.20;;;;;;;20.75;100.00;100643.13;20978314;28;20055;-78
2023/06/25 03:05:37;;;;;;;12.60;10.48;;;;;;;20.71;100.00;100637.91;21003744;28;20083;-77
2023/06/25 03:16:03;;;;;;;12.52;9.85;;;;;;;20.61;100.00;100648.88;21014055;28;20579;-78
2023/06/25 03:26:26;;;;;;;12.63;9.70;;;;;;;20.73;100.00;100646.81;21010382;28;20598;-79
2023/06/25 03:36:51;;;;;;;11.00;7.57;;;;;;;21.08;100.00;100652.91;20988473;28;20045;-79
2023/06/25 03:47:14;;;;;;;10.02;7.10;;;;;;;21.44;100.00;100659.03;20968380;28;20135;-78
2023/06/25 03:57:38;;;;;;;11.77;6.85;;;;;;;21.37;100.00;100660.13;20989937;28;20083;-78
2023/06/25 04:08:01;;;;;;;8.30;6.75;;;;;;;22.15;100.00;100660.34;20947966;28;20051;-78
2023/06/25 04:18:26;;;;;;;10.43;6.10;;;;;;;23.01;100.00;100668.06;20960807;28;20124;-78
2023/06/25 04:28:49;;;;;;;6.78;4.60;;;;;;;23.48;100.00;100681.59;21001505;28;20048;-79
2023/06/25 04:39:15;;;;;;;8.20;4.82;;;;;;;24.33;100.00;100704.25;20963076;28;20040;-78
2023/06/25 04:49:39;;;;;;;7.93;5.75;;;;;;;25.05;100.00;100705.59;20955020;28;20048;-79
2023/06/25 05:00:05;;;;;;;11.18;4.82;;;;;;;25.75;100.00;100707.75;20967247;28;20055;-79
2023/06/25 05:10:27;;;;;;;7.80;4.95;;;;;;;26.51;100.00;100694.03;21055452;28;20192;-80
2023/06/25 05:20:52;;;;;;;6.68;4.80;;;;;;;27.23;100.00;100699.28;20990234;28;20049;-80
2023/06/25 05:31:14;;;;;;;11.68;4.55;;;;;;;28.02;99.47;100705.69;20963897;28;20083;-80
2023/06/25 05:41:41;;;;;;;9.80;4.85;;;;;;;28.90;91.38;100710.44;20956981;28;20450;-80
2023/06/25 05:52:04;;;;;;;7.22;4.57;;;;;;;29.54;77.09;100712.75;20988169;28;20060;-79
2023/06/25 06:02:28;;;;;;;8.00;4.90;;;;;;;30.18;66.07;100715.91;20983097;28;20660;-79
2023/06/25 06:12:51;;;;;;;9.25;4.40;;;;;;;30.83;54.14;100725.09;20996448;28;20049;-79
2023/06/25 06:23:16;;;;;;;7.63;4.38;;;;;;;31.62;46.89;100723.09;20988409;28;20059;-79
2023/06/25 06:33:38;;;;;;;6.18;4.22;;;;;;;32.36;44.16;100724.00;21032892;28;20468;-80
2023/06/25 06:44:14;;;;;;;7.78;4.10;;;;;;;32.86;42.97;100725.63;21034416;28;20040;-78
2023/06/25 06:54:37;;;;;;;6.27;3.40;;;;;;;32.68;43.33;100713.38;20990569;28;20056;-79
2023/06/25 07:05:02;;;;;;;7.18;4.18;;;;;;;32.94;40.77;100725.91;21067177;28;20450;-79
2023/06/25 07:15:24;;;;;;;5.93;4.30;;;;;;;33.55;39.58;100715.53;20997789;28;20040;-79
2023/06/25 07:25:48;;;;;;;9.18;4.30;;;;;;;34.32;38.03;100719.25;20992903;28;20433;-79
2023/06/25 07:36:11;;;;;;;7.90;4.27;;;;;;;34.77;34.42;100706.25;20963497;28;20114;-80
2023/06/25 07:46:36;;;;;;;7.97;4.82;;;;;;;35.19;32.53;100704.34;20978060;28;20044;-80
2023/06/25 07:56:59;;;;;;;9.98;4.53;;;;;;;35.44;31.71;100697.59;21034496;28;20369;-76
2023/06/25 08:07:23;;;;;;;6.05;4.22;;;;;;;35.64;31.40;100701.31;20974263;28;20048;-77
2023/06/25 08:17:46;;;;;;;6.33;4.30;;;;;;;35.83;31.39;100691.28;20974657;28;20053;-79
2023/06/25 08:28:10;;;;;;;8.45;4.50;;;;;;;35.86;30.14;100691.00;20965726;28;20095;-78
2023/06/25 08:38:34;;;;;;;5.27;4.03;;;;;;;35.98;30.25;100702.72;20985150;28;20045;-77
2023/06/25 08:49:00;;;;;;;7.43;4.88;;;;;;;35.90;29.84;100697.97;20946723;28;20094;-76
2023/06/25 08:59:03;;;;;;;10.63;4.10;;;;;;;36.12;30.11;100706.97;20964393;28;20181;-76
2023/06/25 09:09:28;;;;;;;5.15;3.67;;;;;;;36.54;28.86;100708.50;20961193;28;20045;-77
2023/06/25 09:19:51;;;;;;;;;;;;;;;36.45;28.08;100711.22;20949989;28;20052;-79
2023/06/25 09:30:18;;;;;;;4.72;3.80;;;;;;;36.25;27.57;100727.72;20946477;28;19924;-77
2023/06/25 09:40:40;;;;;;;4.93;3.40;;;;;;;36.61;27.18;100730.81;20957018;28;20053;-77
2023/06/25 09:51:08;;;;;;;3.97;2.90;;;;;;;36.30;27.12;100741.91;20944907;28;20067;-77
2023/06/25 10:01:31;;;;;;;5.90;3.00;;;;;;;35.55;28.75;100744.19;20955066;28;20431;-78
2023/06/25 10:11:58;;;;;;;7.22;3.45;;;;;;;35.15;31.20;100741.34;21003248;28;20051;-78
2023/06/25 10:22:23;;;;;;;7.00;3.90;;;;;;;34.90;31.71;100739.84;20940704;28;20056;-79
2023/06/25 10:32:47;;;;;;;8.32;3.47;;;;;;;34.63;32.88;100731.22;20938321;28;20066;-76
2023/06/25 10:43:11;;;;;;;5.47;3.65;;;;;;;34.94;33.78;100715.75;20951503;28;20675;-79
2023/06/25 10:53:35;;;;;;;5.10;3.30;;;;;;;35.27;31.36;100709.19;20979552;28;20040;-77
2023/06/25 11:04:00;;;;;;;6.43;3.47;;;;;;;35.70;30.75;100695.28;20941705;28;20570;-78
2023/06/25 11:14:25;;;;;;;7.03;3.60;;;;;;;36.00;28.62;100694.34;20977922;28;20044;-79
2023/06/25 11:24:48;;;;;;;5.20;3.60;;;;;;;35.78;30.70;100677.06;20983824;28;20071;-79
2023/06/25 11:35:15;;;;;;;6.80;3.20;;;;;;;35.30;30.05;100673.25;20965720;28;20048;-79
2023/06/25 11:45:42;;;;;;;5.85;3.55;;;;;;;35.28;30.55;100672.50;20952910;28;20400;-80
2023/06/25 11:56:06;;;;;;;7.30;3.28;;;;;;;34.98;28.82;100665.09;20966612;28;20040;-79
2023/06/25 12:06:29;;;;;;;7.03;3.60;;;;;;;34.86;28.14;100667.00;20977648;28;20056;-78
2023/06/25 12:16:54;;;;;;;6.00;3.42;;;;;;;34.91;27.50;100648.28;20984685;28;20080;-79
2023/06/25 12:27:16;;;;;;;5.25;3.30;;;;;;;35.33;27.29;100653.72;20991099;28;20057;-81
2023/06/25 12:37:42;;;;;;;6.45;3.53;;;;;;;35.65;27.10;100648.94;20992179;28;20052;-79
2023/06/25 12:48:05;;;;;;;8.25;4.35;;;;;;;35.98;27.01;100653.25;20967618;28;20056;-79
2023/06/25 12:58:31;;;;;;;6.00;3.53;;;;;;;36.14;27.38;100656.31;21004352;28;20041;-79
2023/06/25 13:08:54;;;;;;;5.20;3.67;;;;;;;35.56;28.60;100644.28;21007187;28;20512;-80
2023/06/25 13:19:19;;;;;;;5.00;3.47;;;;;;;35.13;28.98;100639.88;20973478;28;20049;-78
2023/06/25 13:29:41;;;;;;;;;;;;;;;34.68;28.33;100641.16;20962174;28;20103;-79
2023/06/25 13:40:07;;;;;;;6.28;3.22;;;;;;;34.79;28.77;100628.25;20945221;28;19938;-78
2023/06/25 13:50:30;;;;;;;6.00;3.90;;;;;;;34.72;27.80;100621.56;20983311;28;20040;-79
2023/06/25 14:00:55;;;;;;;5.07;3.65;;;;;;;34.81;27.11;100613.53;20995572;28;20056;-79
2023/06/25 14:11:18;;;;;;;6.73;3.43;;;;;;;35.10;27.93;100615.47;20970585;28;20130;-79
2023/06/25 14:21:44;;;;;;;4.47;3.42;;;;;;;35.02;27.37;100600.66;20988203;28;20088;-79
2023/06/25 14:32:07;;;;;;;4.03;3.05;;;;;;;35.56;26.14;100590.22;20961548;28;20047;-80
2023/06/25 14:42:31;;;;;;;4.32;3.42;;;;;;;35.79;25.06;100577.13;20969580;28;20568;-79
2023/06/25 14:52:54;;;;;;;6.25;3.20;;;;;;;35.85;24.90;100570.19;20962764;28;20044;-79
2023/06/25 15:03:18;;;;;;;4.90;2.90;;;;;;;35.60;24.40;100568.81;20964117;28;20052;-77
2023/06/25 15:13:41;;;;;;;6.60;3.40;;;;;;;34.85;24.58;100549.16;20978471;28;20063;-81
2023/06/25 15:24:06;;;;;;;4.30;2.72;;;;;;;34.11;24.83;100545.59;20973568;28;20044;-79
2023/06/25 15:34:29;;;;;;;5.03;2.92;;;;;;;33.59;25.06;100550.88;20974869;28;20790;-77
2023/06/25 15:44:54;;;;;;;5.30;2.53;;;;;;;32.73;25.24;100530.63;20969743;28;20053;-76
2023/06/25 15:55:20;;;;;;;4.32;2.95;;;;;;;31.98;26.19;100530.16;20963398;28;20044;-79
2023/06/25 16:05:48;;;;;;;4.22;2.75;;;;;;;31.43;27.12;100530.72;20979210;28;20071;-79
2023/06/25 16:16:11;;;;;;;4.93;2.70;;;;;;;31.09;27.73;100527.78;20982289;28;20052;-79
2023/06/25 16:26:35;;;;;;;4.47;3.38;;;;;;;30.71;28.47;100533.25;20983382;28;20052;-80
2023/06/25 16:36:57;;;;;;;5.10;3.20;;;;;;;30.41;29.67;100529.94;20980605;28;20056;-79
2023/06/25 16:47:22;;;;;;;5.93;2.85;;;;;;;30.15;30.05;100534.47;20959912;28;20056;-79
2023/06/25 16:57:44;;;;;;;6.13;2.83;;;;;;;29.84;30.14;100538.41;20969778;28;20174;-78
2023/06/25 17:08:09;;;;;;;8.00;3.25;;;;;;;29.61;30.84;100548.13;20957076;28;20408;-78
2023/06/25 17:18:31;;;;;;;6.70;3.30;;;;;;;29.27;30.96;100554.03;20959895;28;20066;-78
2023/06/25 17:28:55;;;;;;;9.55;3.47;;;;;;;28.89;32.12;100554.63;20939543;28;20493;-79
2023/06/25 17:39:18;;;;;;;7.57;3.53;;;;;;;28.50;33.97;100555.25;20970052;28;20055;-78
2023/06/25 17:49:25;;;;;;;10.52;3.47;;;;;;;28.17;35.15;100551.00;21000202;28;20055;-80
2023/06/25 17:59:47;;;;;;;6.85;4.45;;;;;;;27.77;35.53;100559.66;20994907;28;20439;-79
2023/06/25 18:10:12;;;;;;;5.78;3.97;;;;;;;27.40;36.59;100564.56;21003830;28;20094;-79
2023/06/25 18:20:35;;;;;;;6.32;3.80;;;;;;;26.96;36.94;100571.56;20953021;28;20053;-78
2023/06/25 18:31:04;;;;;;;8.20;3.95;;;;;;;26.75;37.35;100588.06;20987758;28;20048;-78
2023/06/25 18:41:28;;;;;;;4.80;3.40;;;;;;;26.49;37.67;100586.75;20983457;28;20057;-77
2023/06/25 18:51:52;;;;;;;7.90;3.92;;;;;;;26.22;38.37;100590.88;20994008;28;20048;-79
2023/06/25 19:02:15;;;;;;;7.20;4.00;;;;;;;25.97;38.79;100585.84;20963254;28;20051;-78
2023/06/25 19:12:40;;;;;;;7.75;4.70;;;;;;;25.82;39.48;100581.19;20971182;28;20063;-78
2023/06/25 19:23:02;;;;;;;6.47;4.32;;;;;;;25.57;40.20;100586.91;20997490;28;20056;-79
2023/06/25 19:33:27;;;;;;;8.60;4.55;;;;;;;25.37;40.90;100594.16;20953744;28;20440;-79
2023/06/25 19:43:50;;;;;;;7.03;4.63;;;;;;;25.30;41.12;100586.44;20988891;28;20067;-78
2023/06/25 19:54:14;;;;;;;7.68;4.63;;;;;;;25.21;41.75;100582.31;21001138;28;20057;-79
2023/06/25 20:04:38;;;;;;;5.53;3.60;;;;;;;25.08;42.46;100583.84;20980220;28;20048;-78
2023/06/25 20:15:02;;;;;;;6.38;4.20;;;;;;;24.90;43.55;100588.31;20975117;28;20158;-79
2023/06/25 20:25:24;;;;;;;6.82;4.40;;;;;;;24.73;44.37;100593.56;20975888;28;20504;-78
2023/06/25 20:35:49;;;;;;;7.03;4.07;;;;;;;24.59;45.34;100582.53;20959183;28;20076;-78
2023/06/25 20:46:12;;;;;;;6.95;4.20;;;;;;;24.57;45.46;100582.59;20979307;28;20131;-78
2023/06/25 20:56:36;;;;;;;6.80;3.60;;;;;;;24.42;45.87;100585.97;20969865;28;20055;-78
2023/06/25 21:06:59;;;;;;;6.10;4.10;;;;;;;24.35;46.02;100572.81;20968907;28;20045;-79
2023/06/25 21:17:24;;;;;;;6.53;4.15;;;;;;;24.38;45.68;100569.97;20938141;28;20072;-78
2023/06/25 21:27:47;;;;;;;8.43;4.47;;;;;;;24.24;46.17;100570.59;20993736;28;20718;-79
2023/06/25 21:38:11;;;;;;;5.50;3.80;;;;;;;24.12;46.50;100549.50;21026086;28;20151;-79
2023/06/25 21:48:34;;;;;;;7.28;3.90;;;;;;;23.74;48.13;100540.38;20984047;28;20057;-78
2023/06/25 21:58:58;;;;;;;5.60;3.70;;;;;;;23.53;48.67;100525.09;20959376;28;20487;-79
2023/06/25 22:09:21;;;;;;;6.03;4.00;;;;;;;23.34;49.07;100522.25;20941834;28;20037;-79
2023/06/25 22:19:44;;;;;;;9.23;4.55;;;;;;;23.01;50.34;100514.56;20971296;28;20052;-78
2023/06/25 22:30:08;;;;;;;6.63;3.70;;;;;;;22.83;51.00;100506.34;20975711;28;20048;-79
2023/06/25 22:40:32;;;;;;;5.93;3.55;;;;;;;22.85;50.45;100488.28;20978614;28;20126;-79
2023/06/25 22:50:54;;;;;;;6.97;3.10;;;;;;;22.90;50.08;100483.63;20996462;28;20500;-79
2023/06/25 23:01:19;;;;;;;5.90;3.53;;;;;;;22.89;50.44;100481.88;20964688;28;20071;-78
2023/06/25 23:11:42;;;;;;;6.63;3.90;;;;;;;22.92;50.19;100474.53;20943071;28;20386;-79
2023/06/25 23:22:13;;;;;;;4.63;3.42;;;;;;;22.78;50.81;100470.63;21006094;28;20052;-78
2023/06/25 23:32:36;;;;;;;5.60;3.45;;;;;;;22.75;50.47;100465.38;20985046;28;20045;-79
2023/06/25 23:43:01;;;;;;;7.10;3.58;;;;;;;22.66;50.79;100461.19;20976388;28;20063;-79
2023/06/25 23:53:25;;;;;;;4.63;3.35;;;;;;;22.65;50.31;100454.94;21053157;28;20135;-78
